createdAt,value
2023-04-10T00:02:22.306Z,98.80
2023-04-10T00:07:20.890Z,98.80
2023-04-10T00:12:20.929Z,98.80
2023-04-10T00:17:19.545Z,98.80
2023-04-10T00:22:17.673Z,98.80
2023-04-10T00:27:16.463Z,98.70
2023-04-10T00:32:16.365Z,98.70
2023-04-10T00:37:14.823Z,98.70
2023-04-10T00:42:13.325Z,98.80
2023-04-10T00:47:11.857Z,98.60
2023-04-10T00:52:12.033Z,99.00
2023-04-10T00:57:10.699Z,99.10
2023-04-10T01:02:11.676Z,99.00
2023-04-10T01:07:19.205Z,99.20
2023-04-10T01:12:32.265Z,99.20
2023-04-10T01:17:36.630Z,99.10
2023-04-10T01:22:43.135Z,99.20
2023-04-10T01:28:01.315Z,99.10
2023-04-10T01:33:03.322Z,99.20
2023-04-10T01:38:03.524Z,99.00
2023-04-10T01:43:03.670Z,99.10
2023-04-10T01:48:14.378Z,99.10
2023-04-10T01:53:12.970Z,99.10
2023-04-10T01:58:12.382Z,99.10
2023-04-10T02:03:14.674Z,99.10
2023-04-10T02:08:16.907Z,99.10
2023-04-10T02:13:22.340Z,99.20
2023-04-10T02:18:24.160Z,99.30
2023-04-10T02:23:22.854Z,99.30
2023-04-10T02:28:21.338Z,99.30
2023-04-10T02:40:16.524Z,99.30
2023-04-10T02:45:25.408Z,99.30
2023-04-10T02:50:23.654Z,99.40
2023-04-10T02:55:23.935Z,99.40
2023-04-10T03:00:23.372Z,99.50
2023-04-10T03:05:38.345Z,99.40
2023-04-10T03:10:38.346Z,99.60
2023-04-10T03:15:36.570Z,99.60
2023-04-10T03:20:35.400Z,99.50
2023-04-10T03:25:37.420Z,99.50
2023-04-10T03:30:38.211Z,99.50
2023-04-10T03:35:36.808Z,99.50
2023-04-10T03:40:38.150Z,99.50
2023-04-10T03:45:39.775Z,99.60
2023-04-10T03:50:38.596Z,99.50
2023-04-10T03:55:39.259Z,99.60
2023-04-10T04:00:37.939Z,99.70
2023-04-10T04:05:58.929Z,99.60
2023-04-10T04:11:10.090Z,99.60
2023-04-10T04:16:19.413Z,99.60
2023-04-10T04:21:23.668Z,99.70
2023-04-10T04:27:01.708Z,99.70
2023-04-10T04:32:22.636Z,99.70
2023-04-10T04:37:39.688Z,99.70
2023-04-10T04:43:09.286Z,99.80
2023-04-10T04:48:24.713Z,99.90
2023-04-10T04:53:52.605Z,99.80
2023-04-10T04:59:11.560Z,99.90
2023-04-10T05:04:36.087Z,99.90
2023-04-10T05:09:57.207Z,99.90
2023-04-10T05:15:17.435Z,99.90
2023-04-10T05:20:24.634Z,99.90
2023-04-10T05:25:33.383Z,99.90
2023-04-10T05:30:43.455Z,99.90
2023-04-10T05:35:59.314Z,99.90
2023-04-10T05:41:07.080Z,99.90
2023-04-10T05:46:12.156Z,99.90
2023-04-10T05:51:19.951Z,99.90
2023-04-10T05:56:36.921Z,99.90
2023-04-10T06:01:55.412Z,99.90
2023-04-10T06:06:53.859Z,99.90
2023-04-10T06:11:53.826Z,99.90
2023-04-10T06:16:56.181Z,99.90
2023-04-10T06:21:54.744Z,99.90
2023-04-10T06:26:54.365Z,99.90
2023-04-10T06:31:52.919Z,99.90
2023-04-10T06:36:53.364Z,99.90
2023-04-10T06:41:52.281Z,99.90
2023-04-10T06:47:13.784Z,99.90
2023-04-10T06:52:13.725Z,99.90
2023-04-10T06:57:11.862Z,99.90
2023-04-10T07:02:10.797Z,99.90
2023-04-10T07:07:10.324Z,99.90
2023-04-10T07:12:10.176Z,99.90
2023-04-10T07:17:08.707Z,99.90
2023-04-10T07:22:08.344Z,99.90
2023-04-10T07:27:06.595Z,99.90
2023-04-10T07:32:07.291Z,99.90
2023-04-10T07:37:06.202Z,99.90
2023-04-10T07:42:04.395Z,99.90
2023-04-10T07:47:03.580Z,99.90
2023-04-10T07:52:03.535Z,99.90
2023-04-10T07:57:01.831Z,99.90
2023-04-10T08:02:00.932Z,99.90
2023-04-10T08:06:59.523Z,99.90
2023-04-10T08:11:59.477Z,99.90
2023-04-10T08:16:58.370Z,99.90
2023-04-10T08:21:56.905Z,99.90
2023-04-10T08:26:55.032Z,99.50
2023-04-10T08:31:55.997Z,99.60
2023-04-10T08:36:55.061Z,99.40
2023-04-10T08:41:53.287Z,99.50
2023-04-10T08:46:52.871Z,99.30
2023-04-10T08:51:58.229Z,99.00
2023-04-10T08:56:58.838Z,99.40
2023-04-10T09:01:58.244Z,99.40
2023-04-10T09:06:58.183Z,99.00
2023-04-10T09:12:04.622Z,98.20
2023-04-10T09:17:19.950Z,98.40
2023-04-10T09:22:20.312Z,98.30
2023-04-10T09:27:36.113Z,98.00
2023-04-10T09:32:42.420Z,97.50
2023-04-10T09:37:43.790Z,97.90
2023-04-10T09:42:41.992Z,97.60
2023-04-10T09:47:40.844Z,98.00
2023-04-10T09:52:39.590Z,97.20
2023-04-10T09:57:39.434Z,96.00
2023-04-10T10:02:40.315Z,95.50
2023-04-10T10:07:39.792Z,95.30
2023-04-10T10:12:46.017Z,94.80
2023-04-10T10:17:52.506Z,94.00
2023-04-10T10:22:52.822Z,95.60
2023-04-10T10:27:55.156Z,94.90
2023-04-10T10:32:54.069Z,94.80
2023-04-10T10:37:53.127Z,94.80
2023-04-10T10:43:06.092Z,93.90
2023-04-10T10:48:04.812Z,93.80
2023-04-10T10:53:03.411Z,92.50
2023-04-10T10:58:05.477Z,92.40
2023-04-10T11:03:31.137Z,92.20
2023-04-10T11:08:46.093Z,91.00
2023-04-10T11:14:18.462Z,91.90
2023-04-10T11:19:22.661Z,90.60
2023-04-10T11:24:22.582Z,91.20
2023-04-10T11:29:46.448Z,88.50
2023-04-10T11:34:46.202Z,89.10
2023-04-10T11:39:44.667Z,88.00
2023-04-10T11:44:43.636Z,88.50
2023-04-10T11:49:43.500Z,86.70
2023-04-10T11:54:50.142Z,85.90
2023-04-10T11:59:52.509Z,85.10
2023-04-10T12:05:00.188Z,84.50
2023-04-10T12:09:58.887Z,81.00
2023-04-10T12:14:57.454Z,81.60
2023-04-10T12:19:57.930Z,83.40
2023-04-10T12:24:56.400Z,80.00
2023-04-10T12:29:56.435Z,79.70
2023-04-10T12:34:58.223Z,82.50
2023-04-10T12:40:07.669Z,78.40
2023-04-10T12:45:09.812Z,79.60
2023-04-10T12:50:11.382Z,81.70
2023-04-10T12:55:12.123Z,78.10
2023-04-10T13:00:12.072Z,79.90
2023-04-10T13:05:12.534Z,77.10
2023-04-10T13:10:11.516Z,80.30
2023-04-10T13:15:11.072Z,80.20
2023-04-10T13:20:13.764Z,78.90
2023-04-10T13:25:12.273Z,82.40
2023-04-10T13:30:10.872Z,83.30
2023-04-10T13:35:10.060Z,80.30
2023-04-10T13:40:11.476Z,81.80
2023-04-10T13:45:10.704Z,81.10
2023-04-10T13:50:09.938Z,82.20
2023-04-10T13:55:11.056Z,82.40
2023-04-10T14:00:10.698Z,82.70
2023-04-10T14:05:12.425Z,81.90
2023-04-10T14:10:12.621Z,83.30
2023-04-10T14:15:11.724Z,83.20
2023-04-10T14:20:12.028Z,82.90
2023-04-10T14:25:16.175Z,81.60
2023-04-10T14:30:15.184Z,83.10
2023-04-10T14:35:14.243Z,83.90
2023-04-10T14:40:14.257Z,83.30
2023-04-10T14:45:13.038Z,83.70
2023-04-10T14:50:12.284Z,84.50
2023-04-10T14:55:11.662Z,85.00
2023-04-10T15:00:12.796Z,83.60
2023-04-10T15:05:11.325Z,84.50
2023-04-10T15:10:10.927Z,84.50
2023-04-10T15:15:12.042Z,83.60
2023-04-10T15:20:11.635Z,83.00
2023-04-10T15:25:12.364Z,83.40
2023-04-10T15:30:13.411Z,84.00
2023-04-10T15:35:11.972Z,83.40
2023-04-10T15:40:11.324Z,83.70
2023-04-10T15:45:11.353Z,83.90
2023-04-10T15:50:10.922Z,84.40
2023-04-10T15:55:09.980Z,84.60
2023-04-10T16:00:09.769Z,84.70
2023-04-10T16:05:10.051Z,84.50
2023-04-10T16:10:09.891Z,85.40
2023-04-10T16:15:09.551Z,84.30
2023-04-10T16:20:09.913Z,84.00
2023-04-10T16:25:12.630Z,84.10
2023-04-10T16:30:12.136Z,84.10
2023-04-10T16:35:12.092Z,85.60
2023-04-10T16:40:12.478Z,84.80
2023-04-10T16:45:11.723Z,85.20
2023-04-10T16:50:12.551Z,85.30
2023-04-10T16:55:11.108Z,85.30
2023-04-10T17:00:11.182Z,85.20
2023-04-10T17:05:11.534Z,86.10
2023-04-10T17:10:10.618Z,85.70
2023-04-10T17:15:09.652Z,86.20
2023-04-10T17:20:10.200Z,86.10
2023-04-10T17:25:10.961Z,86.00
2023-04-10T17:30:13.410Z,86.50
2023-04-10T17:35:11.922Z,86.30
2023-04-10T17:40:13.315Z,86.50
2023-04-10T17:45:13.137Z,86.10
2023-04-10T17:50:12.053Z,86.90
2023-04-10T17:55:12.154Z,86.80
2023-04-10T18:00:16.131Z,87.00
2023-04-10T18:05:15.323Z,87.40
2023-04-10T18:10:14.839Z,87.20
2023-04-10T18:15:15.018Z,87.50
2023-04-10T18:20:13.510Z,87.50
2023-04-10T18:25:12.739Z,87.30
2023-04-10T18:30:13.682Z,88.10
2023-04-10T18:35:12.321Z,88.60
2023-04-10T18:40:16.212Z,88.20
2023-04-10T18:45:16.733Z,88.20
2023-04-10T18:50:15.372Z,88.40
2023-04-10T18:55:13.634Z,88.60
2023-04-10T19:00:13.273Z,88.90
2023-04-10T19:05:14.709Z,88.90
2023-04-10T19:10:12.857Z,88.80
2023-04-10T19:15:14.068Z,88.80
2023-04-10T19:20:14.164Z,89.50
2023-04-10T19:25:12.658Z,89.10
2023-04-10T19:30:11.741Z,89.70
2023-04-10T19:35:11.035Z,90.00
2023-04-10T19:40:11.988Z,90.00
2023-04-10T19:45:11.868Z,90.00
2023-04-10T19:50:10.970Z,89.70
2023-04-10T19:55:11.483Z,89.80
2023-04-10T20:00:11.548Z,89.70
2023-04-10T20:05:12.728Z,90.00
2023-04-10T20:10:13.401Z,90.20
2023-04-10T20:15:12.437Z,89.70
2023-04-10T20:20:13.120Z,89.90
2023-04-10T20:25:13.322Z,90.00
2023-04-10T20:30:12.298Z,90.10
2023-04-10T20:35:11.389Z,90.10
2023-04-10T20:40:12.583Z,90.50
2023-04-10T20:45:12.430Z,90.20
2023-04-10T20:50:12.774Z,90.10
2023-04-10T20:55:13.761Z,90.20
2023-04-10T21:00:13.216Z,90.30
2023-04-10T21:05:11.968Z,90.30
2023-04-10T21:10:12.311Z,90.10
2023-04-10T21:15:11.414Z,90.00
2023-04-10T21:20:10.104Z,90.20
2023-04-10T21:25:09.874Z,90.50
2023-04-10T21:30:10.933Z,90.40
2023-04-10T21:35:09.618Z,90.20
2023-04-10T21:40:09.786Z,90.60
2023-04-10T21:45:11.600Z,90.30
2023-04-10T21:50:10.994Z,90.50
2023-04-10T21:55:10.232Z,90.50
2023-04-10T22:00:12.555Z,90.40
2023-04-10T22:05:11.746Z,90.10
2023-04-10T22:10:10.893Z,90.10
2023-04-10T22:15:12.207Z,90.20
2023-04-10T22:20:11.403Z,90.40
2023-04-10T22:25:10.666Z,90.40
2023-04-10T22:30:11.957Z,90.70
2023-04-10T22:35:10.979Z,90.90
2023-04-10T22:40:10.653Z,91.40
2023-04-10T22:45:11.772Z,91.80
2023-04-10T22:50:10.749Z,91.70
2023-04-10T22:55:10.084Z,92.00
2023-04-10T23:00:11.130Z,92.30
2023-04-10T23:05:10.306Z,92.80
2023-04-10T23:10:10.554Z,93.30
2023-04-10T23:15:11.747Z,93.20
2023-04-10T23:20:11.229Z,93.30
2023-04-10T23:25:10.253Z,93.60
2023-04-10T23:30:09.484Z,93.90
2023-04-10T23:35:10.296Z,94.50
2023-04-10T23:40:10.210Z,94.80
2023-04-10T23:45:10.002Z,94.80
2023-04-10T23:50:11.267Z,95.30
2023-04-10T23:55:09.938Z,95.00
